Etusivu
METAR-TAF:

METAR-TAF

Lentoasemat :

Biserta, Tunisia

Leveyspiiri: 37-15N, Pituuspiiri: 009-48E, korkeus merenpinnasta: 5 m

Tämänhetkinen sää

Tämä raportti tehtiin 1 tunti ja 1 minuuttia sitten, kello 10.00 UTC
Tuuli 9 kn kaakosta
Lämpötila 17°C
Kosteus 48%
Ilmanpaine 1018 hPa
Näkyvyys 10 km tai enemmän
ei pilviä alle 1500 m:ssä eikä cumulonimbus-pilviä

METAR: DTTB 291000Z 14009KT CAVOK 17/06 Q1018

Aika: 12:01 (11:01 UTC)

Sääennuste

Tämä raportti tehtiin 2 tuntia ja 1 minuuttia sitten, kello 09.00 UTC
Ennuste voimassa 29. päivästä klo 10 UTC - 29. päivään klo 19 UTC
Tuuli 10 kn etelästä/kaakosta
Näkyvyys 10 km tai enemmän
Hajanaisia pilviä 2000 ft:n korkeudessa
Tulossa
29. päivästä klo 13 UTC - 29. päivään klo 15 UTC
Tuuli 10 kn lännestä

TAF: DTTB 290900Z 2910/2919 16010KT 9999 SCT020 BECMG 2913/2915 27010KT

Säähavainnot ja -ennusteet yli 4000 lentoasemalta (METAR- ja TAF-raportit).

Käytössä olevat sääasemat on merkitty karttaan keltaisilla ja punaisilla pisteillä.

Aseta hiiri pisteen päälle nähdäksesi sääaseman nimen.

Klikkaa sitten nähdäksesi säähavainnot ja -ennusteet.

Kartan vaihtaminen: klikkaa mustalla rastilla varustettuja vihreitä pisteitä, niin voit zoomata sisään; viivalla varustettua vihreää pistettä, niin voit zoomata ulos tai vihreitä nuolia, niin pääset viereisille kartoille.


METAR-TAF: